RYR7DE LIEO-LIPE
Flight info
| Callsign | RYR7DE |
|---|---|
| Flight time | 0h 42m |
| Altitude | 32000 |
| Route | OLBEK DCT IBROS DCT NEMIT DCT ELB DCT MAREL DCT GINAR L12 LOMED |
| Aircraft | B738/M-SDE2E3FGHIRWXY/LB1 |
Departure
| Time | 2026-05-04 07:07 |
|---|---|
| Airport | Olbia Costa Smeralda Airport (LIEO) |
Arrival
| Time | 2026-05-04 07:49 |
|---|---|
| Airport | Bologna Guglielmo Marconi Airport (LIPE) |
| Time | Latitude | Longitude | Altitude | Speed | Heading |
|---|---|---|---|---|---|
| 2026-05-04 06:48 | 40.90343 | 9.51837 | 33 ft | 0 kts | 23° |
| 2026-05-04 07:02 | 40.90346 | 9.51845 | 32 ft | 2 kts | 70° |
| 2026-05-04 07:02 | 40.90346 | 9.51853 | 32 ft | 1 kts | 94° |
| 2026-05-04 07:03 | 40.90328 | 9.51870 | 33 ft | 4 kts | 148° |
| 2026-05-04 07:03 | 40.90290 | 9.51878 | 33 ft | 11 kts | 201° |
| 2026-05-04 07:03 | 40.90236 | 9.51797 | 33 ft | 9 kts | 201° |
| 2026-05-04 07:03 | 40.90186 | 9.51850 | 31 ft | 15 kts | 109° |
| 2026-05-04 07:04 | 40.90200 | 9.52010 | 32 ft | 19 kts | 57° |
| 2026-05-04 07:04 | 40.90276 | 9.52154 | 33 ft | 21 kts | 54° |
| 2026-05-04 07:04 | 40.90378 | 9.52351 | 33 ft | 30 kts | 55° |
| 2026-05-04 07:04 | 40.90497 | 9.52576 | 33 ft | 29 kts | 55° |
| 2026-05-04 07:05 | 40.90610 | 9.52791 | 33 ft | 28 kts | 56° |
| 2026-05-04 07:05 | 40.90715 | 9.52994 | 33 ft | 26 kts | 60° |
| 2026-05-04 07:05 | 40.90749 | 9.53210 | 33 ft | 23 kts | 114° |
| 2026-05-04 07:05 | 40.90668 | 9.53280 | 34 ft | 9 kts | 210° |
| 2026-05-04 07:06 | 40.90393 | 9.52768 | 33 ft | 90 kts | 235° |
| 2026-05-04 07:06 | 40.89927 | 9.51878 | 32 ft | 144 kts | 235° |
| 2026-05-04 07:06 | 40.89321 | 9.50703 | 353 ft | 161 kts | 236° |
| 2026-05-04 07:07 | 40.88714 | 9.49451 | 981 ft | 164 kts | 246° |
| 2026-05-04 07:08 | 40.96434 | 9.52670 | 3803 ft | 275 kts | 41° |
| 2026-05-04 07:09 | 40.97881 | 9.54314 | 4573 ft | 276 kts | 40° |
| 2026-05-04 07:09 | 40.99356 | 9.55975 | 5166 ft | 283 kts | 39° |
| 2026-05-04 07:09 | 41.00874 | 9.57671 | 5838 ft | 287 kts | 39° |
| 2026-05-04 07:09 | 41.02398 | 9.59425 | 6444 ft | 294 kts | 40° |
| 2026-05-04 07:10 | 41.03930 | 9.61239 | 7144 ft | 294 kts | 40° |
| 2026-05-04 07:10 | 41.05468 | 9.63027 | 7929 ft | 295 kts | 39° |
| 2026-05-04 07:12 | 41.17474 | 9.76226 | 11932 ft | 355 kts | 37° |
| 2026-05-04 07:12 | 41.19389 | 9.78309 | 12674 ft | 358 kts | 37° |
| 2026-05-04 07:12 | 41.21325 | 9.80414 | 13404 ft | 362 kts | 37° |
| 2026-05-04 07:12 | 41.23286 | 9.82547 | 14043 ft | 369 kts | 36° |
| 2026-05-04 07:13 | 41.25408 | 9.84618 | 14192 ft | 388 kts | 28° |
| 2026-05-04 07:13 | 41.27884 | 9.86201 | 14342 ft | 403 kts | 17° |
| 2026-05-04 07:13 | 41.30613 | 9.87272 | 14596 ft | 415 kts | 12° |
| 2026-05-04 07:14 | 41.41970 | 9.91197 | 16882 ft | 428 kts | 12° |
| 2026-05-04 07:14 | 41.44859 | 9.92223 | 17454 ft | 431 kts | 12° |
| 2026-05-04 07:15 | 41.47758 | 9.93264 | 18011 ft | 434 kts | 12° |
| 2026-05-04 07:15 | 41.50684 | 9.94321 | 18531 ft | 437 kts | 12° |
| 2026-05-04 07:15 | 41.53626 | 9.95387 | 18973 ft | 440 kts | 12° |
| 2026-05-04 07:15 | 41.56594 | 9.96463 | 19421 ft | 444 kts | 13° |
| 2026-05-04 07:16 | 41.59587 | 9.97549 | 19855 ft | 447 kts | 13° |
| 2026-05-04 07:16 | 41.62601 | 9.98644 | 20292 ft | 450 kts | 13° |
| 2026-05-04 07:16 | 41.65632 | 9.99746 | 20747 ft | 453 kts | 13° |
| 2026-05-04 07:16 | 41.68687 | 10.00857 | 21184 ft | 456 kts | 13° |
| 2026-05-04 07:17 | 41.71759 | 10.01975 | 21605 ft | 459 kts | 13° |
| 2026-05-04 07:17 | 41.74811 | 10.03088 | 22001 ft | 462 kts | 13° |
| 2026-05-04 07:17 | 41.77925 | 10.04223 | 22397 ft | 465 kts | 13° |
| 2026-05-04 07:17 | 41.81061 | 10.05368 | 22772 ft | 469 kts | 13° |
| 2026-05-04 07:18 | 41.84215 | 10.06521 | 23155 ft | 472 kts | 13° |
| 2026-05-04 07:18 | 41.87388 | 10.07683 | 23528 ft | 474 kts | 13° |
| 2026-05-04 07:18 | 41.90580 | 10.08854 | 23860 ft | 477 kts | 13° |
| 2026-05-04 07:18 | 41.93791 | 10.10033 | 24177 ft | 479 kts | 13° |
| 2026-05-04 07:19 | 41.97013 | 10.11217 | 24512 ft | 481 kts | 13° |
| 2026-05-04 07:19 | 42.00246 | 10.12407 | 24788 ft | 484 kts | 13° |
| 2026-05-04 07:19 | 42.03505 | 10.13608 | 25083 ft | 486 kts | 13° |
| 2026-05-04 07:19 | 42.06770 | 10.14812 | 25398 ft | 488 kts | 13° |
| 2026-05-04 07:20 | 42.10048 | 10.16022 | 25700 ft | 489 kts | 13° |
| 2026-05-04 07:20 | 42.13336 | 10.17237 | 26045 ft | 489 kts | 13° |
| 2026-05-04 07:20 | 42.16574 | 10.18437 | 26947 ft | 475 kts | 14° |
| 2026-05-04 07:20 | 42.19690 | 10.19594 | 27747 ft | 456 kts | 14° |
| 2026-05-04 07:22 | 42.40282 | 10.27248 | 31575 ft | 432 kts | 13° |
| 2026-05-04 07:22 | 42.43175 | 10.28331 | 32032 ft | 431 kts | 13° |
| 2026-05-04 07:23 | 42.48957 | 10.30498 | 32135 ft | 435 kts | 13° |
| 2026-05-04 07:23 | 42.54828 | 10.32704 | 32152 ft | 444 kts | 13° |
| 2026-05-04 07:24 | 42.60883 | 10.34982 | 32154 ft | 458 kts | 13° |
| 2026-05-04 07:24 | 42.67114 | 10.37334 | 32153 ft | 471 kts | 13° |
| 2026-05-04 07:26 | 42.92961 | 10.48733 | 30490 ft | 493 kts | 17° |
| 2026-05-04 07:27 | 42.96214 | 10.50242 | 30058 ft | 494 kts | 17° |
| 2026-05-04 07:27 | 42.99474 | 10.51749 | 29563 ft | 495 kts | 17° |
| 2026-05-04 07:27 | 43.02739 | 10.53257 | 29093 ft | 495 kts | 17° |
| 2026-05-04 07:27 | 43.05999 | 10.54766 | 28641 ft | 495 kts | 17° |
| 2026-05-04 07:28 | 43.09261 | 10.56278 | 28197 ft | 494 kts | 17° |
| 2026-05-04 07:28 | 43.12519 | 10.57790 | 27722 ft | 495 kts | 17° |
| 2026-05-04 07:28 | 43.15732 | 10.59285 | 27301 ft | 495 kts | 18° |
| 2026-05-04 07:28 | 43.18999 | 10.60805 | 26849 ft | 496 kts | 18° |
| 2026-05-04 07:29 | 43.22269 | 10.62330 | 26392 ft | 497 kts | 18° |
| 2026-05-04 07:29 | 43.25547 | 10.63859 | 25939 ft | 498 kts | 18° |
| 2026-05-04 07:29 | 43.28833 | 10.65394 | 25481 ft | 499 kts | 18° |
| 2026-05-04 07:29 | 43.32113 | 10.66927 | 25022 ft | 498 kts | 18° |
| 2026-05-04 07:30 | 43.35381 | 10.68456 | 24567 ft | 493 kts | 18° |
| 2026-05-04 07:30 | 43.38602 | 10.69965 | 24117 ft | 486 kts | 18° |
| 2026-05-04 07:30 | 43.41791 | 10.71462 | 23643 ft | 482 kts | 18° |
| 2026-05-04 07:30 | 43.44950 | 10.72946 | 23116 ft | 476 kts | 18° |
| 2026-05-04 07:31 | 43.48061 | 10.74409 | 22404 ft | 470 kts | 19° |
| 2026-05-04 07:31 | 43.51139 | 10.75858 | 21656 ft | 465 kts | 19° |
| 2026-05-04 07:33 | 43.71539 | 10.80895 | 17062 ft | 434 kts | 4° |
| 2026-05-04 07:33 | 43.74562 | 10.81155 | 16615 ft | 426 kts | 4° |
| 2026-05-04 07:33 | 43.77456 | 10.81419 | 16197 ft | 421 kts | 4° |
| 2026-05-04 07:33 | 43.80439 | 10.81704 | 15798 ft | 427 kts | 4° |
| 2026-05-04 07:34 | 43.83371 | 10.81990 | 15392 ft | 428 kts | 4° |
| 2026-05-04 07:34 | 43.86330 | 10.82284 | 14982 ft | 425 kts | 4° |
| 2026-05-04 07:34 | 43.89267 | 10.82576 | 14569 ft | 422 kts | 4° |
| 2026-05-04 07:34 | 43.92187 | 10.82867 | 14171 ft | 420 kts | 4° |
| 2026-05-04 07:35 | 43.95099 | 10.83158 | 13718 ft | 421 kts | 4° |
| 2026-05-04 07:35 | 43.98020 | 10.83450 | 13289 ft | 421 kts | 4° |
| 2026-05-04 07:35 | 44.00946 | 10.83743 | 12864 ft | 420 kts | 4° |
| 2026-05-04 07:35 | 44.03824 | 10.84032 | 12661 ft | 407 kts | 4° |
| 2026-05-04 07:36 | 44.06605 | 10.84309 | 12517 ft | 393 kts | 4° |
| 2026-05-04 07:36 | 44.09284 | 10.84578 | 12382 ft | 379 kts | 4° |
| 2026-05-04 07:38 | 44.25566 | 10.86211 | 11754 ft | 298 kts | 4° |
| 2026-05-04 07:38 | 44.27623 | 10.86417 | 11522 ft | 296 kts | 4° |
| 2026-05-04 07:38 | 44.29669 | 10.86625 | 11253 ft | 295 kts | 4° |
| 2026-05-04 07:38 | 44.31714 | 10.86830 | 10991 ft | 294 kts | 3° |
| 2026-05-04 07:39 | 44.33745 | 10.87035 | 10764 ft | 291 kts | 3° |
| 2026-05-04 07:39 | 44.35766 | 10.87236 | 10472 ft | 292 kts | 3° |
| 2026-05-04 07:39 | 44.37774 | 10.87440 | 10152 ft | 287 kts | 3° |
| 2026-05-04 07:39 | 44.39760 | 10.87641 | 9665 ft | 287 kts | 3° |
| 2026-05-04 07:40 | 44.41744 | 10.87842 | 9231 ft | 284 kts | 3° |
| 2026-05-04 07:40 | 44.43712 | 10.88041 | 8809 ft | 283 kts | 3° |
| 2026-05-04 07:40 | 44.45675 | 10.88240 | 8383 ft | 282 kts | 2° |
| 2026-05-04 07:40 | 44.47608 | 10.88436 | 8041 ft | 277 kts | 3° |
| 2026-05-04 07:41 | 44.49516 | 10.88630 | 7648 ft | 273 kts | 3° |
| 2026-05-04 07:41 | 44.51410 | 10.88822 | 7225 ft | 273 kts | 4° |
| 2026-05-04 07:41 | 44.53297 | 10.89013 | 6820 ft | 271 kts | 4° |
| 2026-05-04 07:41 | 44.55172 | 10.89202 | 6453 ft | 268 kts | 4° |
| 2026-05-04 07:42 | 44.56994 | 10.89589 | 5934 ft | 269 kts | 21° |
| 2026-05-04 07:42 | 44.58690 | 10.90775 | 5416 ft | 272 kts | 28° |
| 2026-05-04 07:42 | 44.60346 | 10.91977 | 5083 ft | 267 kts | 27° |
| 2026-05-04 07:42 | 44.61967 | 10.93127 | 4984 ft | 258 kts | 26° |
| 2026-05-04 07:43 | 44.63364 | 10.94502 | 4886 ft | 243 kts | 51° |
| 2026-05-04 07:43 | 44.64080 | 10.96539 | 4793 ft | 231 kts | 80° |
| 2026-05-04 07:43 | 44.64090 | 10.98754 | 4553 ft | 229 kts | 107° |
| 2026-05-04 07:43 | 44.63534 | 11.00846 | 4284 ft | 230 kts | 113° |
| 2026-05-04 07:44 | 44.62884 | 11.02917 | 3997 ft | 232 kts | 116° |
| 2026-05-04 07:44 | 44.62175 | 11.04940 | 3689 ft | 229 kts | 118° |
| 2026-05-04 07:44 | 44.61463 | 11.06900 | 3393 ft | 221 kts | 119° |
| 2026-05-04 07:44 | 44.60780 | 11.08781 | 3085 ft | 212 kts | 118° |
| 2026-05-04 07:45 | 44.60129 | 11.10590 | 2805 ft | 204 kts | 118° |
| 2026-05-04 07:45 | 44.59501 | 11.12326 | 2541 ft | 196 kts | 117° |
| 2026-05-04 07:45 | 44.58899 | 11.13992 | 2273 ft | 188 kts | 117° |
| 2026-05-04 07:45 | 44.58316 | 11.15604 | 2032 ft | 183 kts | 117° |
| 2026-05-04 07:46 | 44.57758 | 11.17159 | 1803 ft | 173 kts | 117° |
| 2026-05-04 07:46 | 44.57229 | 11.18623 | 1613 ft | 163 kts | 117° |
| 2026-05-04 07:46 | 44.56725 | 11.20022 | 1354 ft | 158 kts | 116° |
| 2026-05-04 07:46 | 44.56235 | 11.21381 | 1142 ft | 154 kts | 116° |
| 2026-05-04 07:47 | 44.55766 | 11.22684 | 938 ft | 148 kts | 116° |
| 2026-05-04 07:47 | 44.55306 | 11.23965 | 746 ft | 148 kts | 115° |
| 2026-05-04 07:47 | 44.54856 | 11.25231 | 549 ft | 146 kts | 115° |
| 2026-05-04 07:49 | 44.53160 | 11.29375 | 128 ft | 7 kts | 209° |
| 2026-05-04 07:49 | 44.53154 | 11.29370 | 129 ft | 0 kts | 209° |
| 2026-05-04 07:50 | 44.53141 | 11.29353 | 128 ft | 9 kts | 237° |
| 2026-05-04 07:50 | 44.53165 | 11.29235 | 128 ft | 14 kts | 297° |
| 2026-05-04 07:50 | 44.53134 | 11.29159 | 127 ft | 10 kts | 206° |
| 2026-05-04 07:51 | 44.53073 | 11.29116 | 128 ft | 10 kts | 206° |
| 2026-05-04 07:51 | 44.53027 | 11.29086 | 127 ft | 4 kts | 192° |
| 2026-05-04 07:51 | 44.53003 | 11.29110 | 128 ft | 4 kts | 126° |
| 2026-05-04 07:51 | 44.52993 | 11.29139 | 129 ft | 0 kts | 116° |
| 2026-05-04 07:52 | 44.52990 | 11.29147 | 129 ft | 0 kts | 116° |